Time;durP1;ratioP1;P1;durP2;ratioP2;P2;SDS_P1;SDS_P2;PMS_P1;PMS_P2;Temp;Humidity;BMP_temperature;BMP_pressure;BME280_temperature;BME280_humidity;BME280_pressure;Samples;Min_cycle;Max_cycle;Signal;HPM_P1;HPM_P2
2022/05/09 00:00:05;;;;;;;6.53;2.97;;;;;;;9.15;100.00;101596.84;5010554;28;20036;-62
2022/05/09 00:02:31;;;;;;;8.48;3.55;;;;;;;8.98;100.00;101559.72;5028376;28;20040;-62
2022/05/09 00:04:57;;;;;;;7.60;3.00;;;;;;;9.13;100.00;101589.00;5028408;28;20043;-62
2022/05/09 00:07:22;;;;;;;4.68;2.92;;;;;;;9.04;100.00;101572.66;5028040;28;20029;-62
2022/05/09 00:09:48;;;;;;;3.88;2.60;;;;;;;9.02;100.00;101575.31;5027865;28;20404;-62
2022/05/09 00:12:13;;;;;;;5.75;2.45;;;;;;;8.90;100.00;101557.28;5027775;28;20902;-62
2022/05/09 00:14:38;;;;;;;7.15;2.65;;;;;;;9.03;100.00;101584.91;5027827;28;20028;-62
2022/05/09 00:17:04;;;;;;;11.40;2.67;;;;;;;8.93;100.00;101582.53;5028180;28;20030;-62
2022/05/09 00:19:30;;;;;;;4.15;2.60;;;;;;;8.80;100.00;101579.34;5028253;28;20978;-62
2022/05/09 00:21:55;;;;;;;9.65;2.58;;;;;;;8.75;100.00;101581.25;5028760;28;20963;-62
2022/05/09 00:24:22;;;;;;;6.78;2.75;;;;;;;8.79;100.00;101593.34;5027877;28;20884;-62
2022/05/09 00:26:49;;;;;;;6.88;3.08;;;;;;;8.52;100.00;101552.94;5027348;28;20906;-62
2022/05/09 00:29:15;;;;;;;5.70;3.28;;;;;;;8.66;100.00;101570.97;5043710;28;20479;-62
2022/05/09 00:31:43;;;;;;;11.57;3.85;;;;;;;8.70;100.00;101580.47;5027494;28;20043;-62
2022/05/09 00:34:10;;;;;;;5.65;3.47;;;;;;;8.58;100.00;101544.09;5028261;28;20032;-62
2022/05/09 00:36:36;;;;;;;7.25;3.42;;;;;;;8.80;100.00;101568.88;5028161;28;20062;-62
2022/05/09 00:39:02;;;;;;;10.15;3.25;;;;;;;8.81;100.00;101570.59;5029665;28;20110;-62
2022/05/09 00:41:28;;;;;;;12.15;3.13;;;;;;;8.77;100.00;101553.22;5027969;28;20028;-62
2022/05/09 00:43:55;;;;;;;6.07;3.05;;;;;;;8.98;100.00;101578.06;5028441;28;20026;-63
2022/05/09 00:46:21;;;;;;;7.07;3.20;;;;;;;8.98;100.00;101565.81;5026950;28;20823;-62
2022/05/09 00:48:47;;;;;;;7.00;3.25;;;;;;;9.08;100.00;101569.06;5027562;28;20136;-62
2022/05/09 00:51:18;;;;;;;6.15;3.00;;;;;;;9.05;100.00;101570.00;5029010;28;20036;-62
2022/05/09 00:53:44;;;;;;;9.48;2.92;;;;;;;9.06;100.00;101557.72;5028567;28;20039;-62
2022/05/09 00:56:14;;;;;;;6.43;3.75;;;;;;;9.13;100.00;101567.16;5027025;28;20797;-62
2022/05/09 00:58:46;;;;;;;8.45;3.60;;;;;;;9.07;100.00;101552.47;5026910;28;20060;-62
2022/05/09 01:01:12;;;;;;;5.63;3.13;;;;;;;9.13;100.00;101562.78;5027290;28;20043;-62
2022/05/09 01:04:11;;;;;;;11.88;4.05;;;;;;;9.13;100.00;101562.78;5026911;28;20127;-62
2022/05/09 01:06:38;;;;;;;6.78;3.50;;;;;;;8.77;100.00;101505.19;4976833;28;20044;-62
2022/05/09 01:09:05;;;;;;;6.13;3.00;;;;;;;9.08;100.00;101559.44;5028530;28;20038;-62
2022/05/09 01:11:31;;;;;;;5.50;3.08;;;;;;;9.11;100.00;101563.75;5027934;28;20413;-62
2022/05/09 01:14:24;;;;;;;11.25;3.95;;;;;;;9.09;100.00;101565.56;5009961;28;20090;-62
2022/05/09 01:16:49;;;;;;;6.90;3.75;;;;;;;8.78;100.00;101513.03;5024877;28;20040;-62
2022/05/09 01:19:26;;;;;;;6.80;3.17;;;;;;;9.03;100.00;101558.69;5027367;28;20810;-62
2022/05/09 01:21:52;;;;;;;5.53;3.20;;;;;;;9.06;100.00;101561.22;5009352;28;20146;-62
2022/05/09 01:24:20;;;;;;;6.82;4.15;;;;;;;9.03;100.00;101563.94;5026492;28;20150;-62
2022/05/09 01:26:46;;;;;;;5.30;3.40;;;;;;;8.93;100.00;101557.19;5026851;28;20097;-62
2022/05/09 01:29:19;;;;;;;7.82;3.72;;;;;;;8.88;100.00;101560.84;5026819;28;20034;-62
2022/05/09 01:31:46;;;;;;;7.88;3.33;;;;;;;8.71;100.00;101533.28;5016465;28;20028;-62
2022/05/09 01:34:13;;;;;;;8.43;3.58;;;;;;;8.67;100.00;101533.38;5047084;28;20020;-62
2022/05/09 01:36:39;;;;;;;8.88;3.13;;;;;;;8.63;100.00;101545.69;5046640;28;20028;-62
2022/05/09 01:39:10;;;;;;;11.32;3.60;;;;;;;8.58;100.00;101555.41;5045437;28;20170;-62
2022/05/09 01:41:43;;;;;;;6.00;3.45;;;;;;;8.51;100.00;101547.75;5046562;28;20084;-62
2022/05/09 01:44:10;;;;;;;8.35;3.55;;;;;;;8.41;100.00;101546.25;5047287;28;20032;-62
2022/05/09 01:49:29;;;;;;;7.25;3.55;;;;;;;8.36;100.00;101553.31;5048272;28;20028;-62
2022/05/09 01:49:32;;;;;;;5.88;3.88;;;;;;;8.04;100.00;101502.50;5049265;28;20048;-62
2022/05/09 01:52:04;;;;;;;12.95;4.38;;;;;;;8.32;100.00;101546.44;5047650;28;20059;-62
2022/05/09 01:54:30;;;;;;;9.20;3.97;;;;;;;8.08;100.00;101522.47;5047770;28;20039;-63
2022/05/09 01:56:55;;;;;;;8.55;3.90;;;;;;;8.28;100.00;101539.53;5047950;28;20051;-62
2022/05/09 01:59:21;;;;;;;6.47;4.10;;;;;;;8.29;100.00;101546.50;5046575;28;20038;-62
2022/05/09 02:01:49;;;;;;;7.45;3.78;;;;;;;8.21;100.00;101544.88;5046919;28;20972;-62
2022/05/09 02:04:15;;;;;;;6.35;3.88;;;;;;;7.91;100.00;101513.31;5046358;28;20027;-62
2022/05/09 02:06:40;;;;;;;5.45;3.28;;;;;;;7.89;100.00;101534.25;5047505;28;20055;-62
2022/05/09 02:09:06;;;;;;;6.13;3.90;;;;;;;7.83;100.00;101549.22;5046573;28;20789;-62
2022/05/09 02:11:32;;;;;;;6.10;3.85;;;;;;;7.68;100.00;101553.00;5046844;28;20036;-61
2022/05/09 02:13:57;;;;;;;7.72;3.53;;;;;;;7.48;100.00;101526.38;5046255;28;20873;-62
2022/05/09 02:16:23;;;;;;;6.70;4.28;;;;;;;6.96;100.00;101459.38;5045941;28;20028;-62
2022/05/09 02:18:48;;;;;;;8.90;3.65;;;;;;;6.94;100.00;101475.97;5045653;28;20039;-62
2022/05/09 02:21:13;;;;;;;7.32;3.75;;;;;;;7.26;100.00;101548.59;5047236;28;20028;-62
2022/05/09 02:23:39;;;;;;;18.40;5.30;;;;;;;7.18;100.00;101548.72;5045891;28;20028;-62
2022/05/09 02:26:04;;;;;;;7.40;3.85;;;;;;;6.84;100.00;101505.75;5045802;28;20150;-62
2022/05/09 02:28:30;;;;;;;7.97;3.65;;;;;;;7.06;100.00;101554.16;5027520;28;20051;-63
2022/05/09 02:30:55;;;;;;;6.43;3.67;;;;;;;6.99;100.00;101553.41;5045680;28;20117;-62
2022/05/09 02:33:21;;;;;;;8.10;4.35;;;;;;;6.89;100.00;101545.75;5045949;28;20024;-62
2022/05/09 02:35:47;;;;;;;7.22;4.43;;;;;;;6.60;100.00;101514.88;5045571;28;20836;-62
2022/05/09 02:38:13;;;;;;;6.82;4.38;;;;;;;6.56;100.00;101524.50;5045623;28;20028;-62
2022/05/09 02:40:38;;;;;;;10.75;4.78;;;;;;;6.50;100.00;101537.66;5045958;28;20039;-62
2022/05/09 02:43:04;;;;;;;9.75;4.95;;;;;;;6.53;100.00;101547.19;5045558;28;20877;-62
2022/05/09 02:45:29;;;;;;;11.18;4.45;;;;;;;6.35;100.00;101526.59;5047537;28;20820;-62
2022/05/09 02:47:56;;;;;;;16.85;4.65;;;;;;;6.51;100.00;101551.56;5045398;28;20024;-62
2022/05/09 02:50:22;;;;;;;7.78;4.40;;;;;;;6.47;100.00;101553.38;5027863;28;20036;-62
2022/05/09 02:52:49;;;;;;;8.88;4.63;;;;;;;6.46;100.00;101555.97;5045606;28;20776;-62
2022/05/09 02:55:15;;;;;;;6.35;3.83;;;;;;;6.24;100.00;101528.47;5027906;28;20089;-62
2022/05/09 02:57:40;;;;;;;7.20;4.63;;;;;;;6.35;100.00;101553.56;5045178;28;20095;-62
2022/05/09 03:00:10;;;;;;;9.90;5.07;;;;;;;6.30;100.00;101555.34;5046237;28;20059;-62
2022/05/09 03:02:36;;;;;;;7.30;4.38;;;;;;;6.16;100.00;101532.06;5046107;28;21035;-62
2022/05/09 03:05:01;;;;;;;8.95;4.80;;;;;;;6.18;100.00;101539.00;5047050;28;20037;-62
2022/05/09 03:07:27;;;;;;;5.88;4.55;;;;;;;6.10;100.00;101542.59;5045167;28;20939;-62
2022/05/09 03:09:52;;;;;;;10.25;5.10;;;;;;;5.95;100.00;101521.91;5045603;28;20181;-62
2022/05/09 03:12:19;;;;;;;11.50;4.05;;;;;;;6.00;100.00;101534.91;5029073;28;20099;-62
2022/05/09 03:14:46;;;;;;;10.20;5.22;;;;;;;6.00;100.00;101529.69;5050540;28;20158;-62
2022/05/09 03:17:12;;;;;;;8.98;5.28;;;;;;;6.01;100.00;101540.13;5051323;28;20077;-62
2022/05/09 03:19:37;;;;;;;6.82;4.32;;;;;;;5.94;100.00;101524.56;5032829;28;20849;-62
2022/05/09 03:22:03;;;;;;;8.05;4.60;;;;;;;5.98;100.00;101532.28;5047932;28;20035;-62
2022/05/09 03:24:29;;;;;;;5.25;4.13;;;;;;;5.74;100.00;101490.88;5047670;28;20056;-62
2022/05/09 03:26:55;;;;;;;7.32;4.85;;;;;;;5.97;100.00;101530.59;5030257;28;20085;-62
2022/05/09 03:29:20;;;;;;;9.07;5.28;;;;;;;5.99;100.00;101539.25;5048081;28;20820;-62
2022/05/09 03:31:47;;;;;;;7.70;4.78;;;;;;;5.89;100.00;101514.16;5048941;28;20039;-62
2022/05/09 03:34:13;;;;;;;8.98;5.40;;;;;;;5.95;100.00;101537.56;5047614;28;20046;-62
2022/05/09 03:36:39;;;;;;;9.27;4.35;;;;;;;5.84;100.00;101513.34;5048164;28;20027;-62
2022/05/09 03:39:05;;;;;;;7.97;5.13;;;;;;;5.78;100.00;101515.19;5047881;28;20040;-63
2022/05/09 03:41:31;;;;;;;10.63;4.82;;;;;;;5.17;100.00;101411.66;5049861;28;20101;-62
2022/05/09 03:43:56;;;;;;;11.45;5.88;;;;;;;5.54;100.00;101492.88;5048351;28;20040;-62
2022/05/09 03:46:22;;;;;;;10.90;5.78;;;;;;;5.75;100.00;101533.44;5048282;28;20035;-62
2022/05/09 03:48:48;;;;;;;11.27;4.93;;;;;;;5.68;100.00;101527.44;5048661;28;20032;-62
2022/05/09 03:51:13;;;;;;;10.68;5.47;;;;;;;5.62;100.00;101527.50;5032210;28;20027;-62
2022/05/09 03:53:38;;;;;;;9.25;5.82;;;;;;;5.63;100.00;101530.13;5048149;28;20051;-62
2022/05/09 03:56:05;;;;;;;12.20;5.90;;;;;;;5.64;100.00;101524.00;5049811;28;20024;-62
2022/05/09 03:58:30;;;;;;;15.80;5.65;;;;;;;5.64;100.00;101523.16;5048945;28;20780;-62
2022/05/09 04:00:56;;;;;;;8.55;5.60;;;;;;;5.66;100.00;101524.00;5048625;28;20142;-63
2022/05/09 04:03:21;;;;;;;8.80;4.88;;;;;;;5.51;100.00;101496.34;5029667;28;20089;-62
2022/05/09 04:05:47;;;;;;;9.43;5.28;;;;;;;5.64;100.00;101520.56;5029522;28;20098;-62
2022/05/09 04:08:20;;;;;;;8.52;5.80;;;;;;;5.67;100.00;101520.53;5047174;28;20047;-62
2022/05/09 04:10:46;;;;;;;8.60;5.30;;;;;;;5.63;100.00;101513.59;5048709;28;20423;-62
2022/05/09 04:13:12;;;;;;;8.10;5.03;;;;;;;5.65;100.00;101522.25;5049416;28;20037;-62
2022/05/09 04:18:28;;;;;;;10.30;6.28;;;;;;;5.66;100.00;101529.22;5048920;28;20074;-63
2022/05/09 04:20:53;;;;;;;13.43;6.00;;;;;;;5.69;100.00;101526.56;5048837;28;20836;-63
2022/05/09 04:23:19;;;;;;;9.85;5.45;;;;;;;5.72;100.00;101523.91;5048419;28;20036;-63
2022/05/09 04:25:45;;;;;;;8.68;5.53;;;;;;;5.75;100.00;101523.88;5049309;28;20057;-63
2022/05/09 04:28:11;;;;;;;9.60;5.72;;;;;;;5.27;100.00;101446.28;5032707;28;20059;-62
2022/05/09 04:30:38;;;;;;;9.75;6.00;;;;;;;5.62;100.00;101509.25;5049990;28;20028;-63
2022/05/09 04:33:04;;;;;;;19.02;6.70;;;;;;;5.79;100.00;101525.56;5052109;28;20043;-63
2022/05/09 04:35:30;;;;;;;8.82;5.45;;;;;;;5.81;100.00;101529.03;5050588;28;20039;-62
2022/05/09 04:37:56;;;;;;;7.38;5.13;;;;;;;5.86;100.00;101540.28;5031212;28;20848;-62
2022/05/09 04:40:24;;;;;;;9.77;5.93;;;;;;;5.81;100.00;101516.00;5049225;28;20139;-62
2022/05/09 04:42:51;;;;;;;11.85;6.35;;;;;;;5.91;100.00;101519.38;5049160;28;20123;-62
2022/05/09 04:45:16;;;;;;;11.57;6.15;;;;;;;6.04;100.00;101532.25;5049270;28;20028;-62
2022/05/09 04:47:43;;;;;;;17.58;6.32;;;;;;;6.05;100.00;101520.91;5048885;28;20066;-62
2022/05/09 04:50:11;;;;;;;10.45;6.03;;;;;;;6.12;100.00;101525.16;5048601;28;20085;-62
2022/05/09 04:52:37;;;;;;;16.73;5.78;;;;;;;6.09;100.00;101519.97;5048705;28;20028;-62
2022/05/09 04:55:03;;;;;;;10.90;6.15;;;;;;;6.21;100.00;101529.41;5048587;28;20094;-63
2022/05/09 04:57:28;;;;;;;9.55;5.97;;;;;;;6.27;100.00;101525.81;5048290;28;20024;-62
2022/05/09 04:59:54;;;;;;;11.40;6.30;;;;;;;6.34;100.00;101525.72;5048468;28;20039;-62
2022/05/09 05:02:19;;;;;;;9.52;5.97;;;;;;;6.12;100.00;101480.78;5050118;28;20127;-62
2022/05/09 05:04:44;;;;;;;14.55;6.90;;;;;;;6.48;100.00;101525.53;5047152;28;20038;-62
2022/05/09 05:07:10;;;;;;;8.07;5.13;;;;;;;6.52;100.00;101511.53;5046742;28;20883;-62
2022/05/09 05:09:36;;;;;;;13.20;6.47;;;;;;;6.64;100.00;101514.81;5046258;28;20088;-62
2022/05/09 05:12:03;;;;;;;10.23;6.40;;;;;;;6.74;100.00;101512.91;5045875;28;20028;-62
2022/05/09 05:14:28;;;;;;;8.70;6.13;;;;;;;6.84;100.00;101511.84;5048107;28;20024;-62
2022/05/09 05:17:00;;;;;;;12.82;6.45;;;;;;;7.01;100.00;101508.94;5047442;28;21061;-63
2022/05/09 05:19:35;;;;;;;7.95;5.82;;;;;;;7.10;100.00;101514.88;5048928;28;20043;-63
2022/05/09 05:22:02;;;;;;;8.93;5.75;;;;;;;7.26;100.00;101527.69;5046295;28;20082;-63
2022/05/09 05:24:28;;;;;;;12.43;6.32;;;;;;;7.20;100.00;101490.28;5045850;28;20024;-63
2022/05/09 05:26:54;;;;;;;9.25;6.07;;;;;;;7.33;100.00;101490.06;5028391;28;20913;-63
2022/05/09 05:29:21;;;;;;;11.07;5.88;;;;;;;7.67;100.00;101515.50;5028936;28;20036;-63
2022/05/09 05:31:46;;;;;;;10.00;6.13;;;;;;;7.83;100.00;101529.16;5046165;28;20039;-63
2022/05/09 05:34:12;;;;;;;9.07;6.45;;;;;;;8.00;100.00;101526.19;5047438;28;20036;-63
2022/05/09 05:36:37;;;;;;;10.45;6.30;;;;;;;8.13;100.00;101520.66;5046655;28;20020;-63
2022/05/09 05:39:03;;;;;;;20.00;6.70;;;;;;;8.31;100.00;101529.88;5047547;28;20899;-63
2022/05/09 05:41:31;;;;;;;14.25;6.32;;;;;;;8.44;100.00;101525.22;5046182;28;20059;-63
2022/05/09 05:43:57;;;;;;;9.70;5.38;;;;;;;8.53;100.00;101520.63;5046790;28;20032;-63
2022/05/09 05:46:23;;;;;;;9.13;5.72;;;;;;;8.66;100.00;101531.66;5047560;28;20027;-63
2022/05/09 05:48:48;;;;;;;9.80;6.28;;;;;;;8.79;100.00;101535.69;5041167;28;20116;-63
2022/05/09 05:51:14;;;;;;;9.68;5.75;;;;;;;8.90;100.00;101538.91;5020271;28;20131;-63
2022/05/09 05:53:41;;;;;;;8.65;5.57;;;;;;;9.00;100.00;101540.41;5035538;28;20028;-63
2022/05/09 05:56:06;;;;;;;10.23;5.43;;;;;;;9.05;100.00;101533.31;5035960;28;20024;-63
2022/05/09 05:58:32;;;;;;;15.18;5.95;;;;;;;9.12;100.00;101529.63;5035552;28;20977;-63
2022/05/09 06:00:57;;;;;;;9.25;6.13;;;;;;;8.94;100.00;101482.91;5035029;28;20038;-63
2022/05/09 06:03:23;;;;;;;13.75;5.55;;;;;;;9.39;100.00;101537.66;5040457;28;20038;-63
2022/05/09 06:05:49;;;;;;;9.05;5.97;;;;;;;9.48;100.00;101538.25;5045303;28;20094;-63
2022/05/09 06:08:16;;;;;;;10.05;6.38;;;;;;;9.47;100.00;101525.19;5040732;28;20024;-63
2022/05/09 06:10:41;;;;;;;9.50;5.70;;;;;;;9.66;100.00;101535.16;5025552;28;20032;-63
2022/05/09 06:13:07;;;;;;;11.80;5.50;;;;;;;9.61;100.00;101508.16;5030633;28;20884;-63
2022/05/09 06:15:33;;;;;;;9.27;5.20;;;;;;;9.93;100.00;101541.38;5027532;28;20118;-62
2022/05/09 06:18:12;;;;;;;8.95;5.63;;;;;;;10.04;100.00;101539.25;5025456;28;20140;-62
2022/05/09 06:20:39;;;;;;;8.77;5.85;;;;;;;9.97;100.00;101518.50;5026901;28;20039;-63
2022/05/09 06:23:05;;;;;;;10.60;5.72;;;;;;;10.19;100.00;101540.63;5025925;28;20123;-63
2022/05/09 06:25:34;;;;;;;10.35;6.55;;;;;;;10.21;100.00;101526.53;5027034;28;20036;-62
2022/05/09 06:28:00;;;;;;;8.80;6.35;;;;;;;10.24;100.00;101507.16;5026012;28;20032;-62
2022/05/09 06:30:27;;;;;;;18.55;5.43;;;;;;;10.58;100.00;101541.13;5041774;28;20091;-62
2022/05/09 06:32:53;;;;;;;14.00;6.78;;;;;;;10.67;100.00;101551.38;5027461;28;20060;-63
2022/05/09 06:35:23;;;;;;;13.75;7.10;;;;;;;10.68;100.00;101532.03;5025925;28;20134;-62
2022/05/09 06:37:49;;;;;;;11.60;6.35;;;;;;;10.85;100.00;101539.41;5025503;28;20025;-62
2022/05/09 06:40:15;;;;;;;9.30;5.60;;;;;;;10.59;100.00;101483.28;5040393;28;20028;-62
2022/05/09 06:42:41;;;;;;;9.45;5.65;;;;;;;11.08;100.00;101547.38;5025447;28;20032;-63
2022/05/09 06:45:07;;;;;;;13.18;6.68;;;;;;;11.14;100.00;101545.41;5025656;28;20083;-63
2022/05/09 06:47:33;;;;;;;9.73;6.25;;;;;;;11.15;100.00;101530.50;5027493;28;20036;-62
2022/05/09 06:50:03;;;;;;;10.23;5.85;;;;;;;11.23;100.00;101531.94;5032338;28;20994;-63
2022/05/09 06:52:29;;;;;;;10.85;6.15;;;;;;;11.36;100.00;101536.75;5043003;28;20071;-62
2022/05/09 06:54:54;;;;;;;10.48;5.93;;;;;;;11.45;100.00;101542.56;5029316;28;20028;-63
2022/05/09 06:57:19;;;;;;;10.52;6.70;;;;;;;11.45;100.00;101523.28;5031447;28;20135;-62
2022/05/09 06:59:47;;;;;;;7.72;5.28;;;;;;;11.53;100.00;101526.47;5046942;28;20874;-62
2022/05/09 07:02:13;;;;;;;12.23;6.15;;;;;;;11.68;100.00;101533.84;5054634;28;20089;-62
2022/05/09 07:04:39;;;;;;;14.45;6.22;;;;;;;11.75;100.00;101530.09;5053859;28;20088;-62
2022/05/09 07:07:04;;;;;;;13.30;6.20;;;;;;;11.82;100.00;101530.75;5055866;28;20028;-62
2022/05/09 07:09:29;;;;;;;11.88;6.07;;;;;;;11.82;100.00;101505.25;5042706;28;20029;-62
2022/05/09 07:11:55;;;;;;;17.67;6.35;;;;;;;12.05;100.00;101523.69;5040328;28;20031;-63
2022/05/09 07:14:21;;;;;;;14.65;6.35;;;;;;;12.08;100.00;101518.28;5041787;28;20860;-62
2022/05/09 07:16:46;;;;;;;8.35;5.43;;;;;;;12.14;100.00;101509.28;5045634;28;20027;-63
2022/05/09 07:19:12;;;;;;;9.65;5.75;;;;;;;12.32;100.00;101518.25;5065699;28;20345;-63
2022/05/09 07:21:37;;;;;;;11.85;5.90;;;;;;;12.30;100.00;101502.53;5046859;28;20425;-62
2022/05/09 07:24:03;;;;;;;12.75;6.05;;;;;;;12.55;100.00;101520.84;5068583;28;20032;-62
2022/05/09 07:26:28;;;;;;;13.48;5.70;;;;;;;12.63;100.00;101516.13;5070361;28;20111;-63
2022/05/09 07:28:53;;;;;;;11.63;6.43;;;;;;;12.67;100.00;101501.91;5070473;28;20028;-63
2022/05/09 07:31:19;;;;;;;11.30;5.88;;;;;;;12.89;100.00;101528.22;5070456;28;20171;-62
2022/05/09 07:33:44;;;;;;;8.20;5.40;;;;;;;12.98;100.00;101523.41;5068969;28;20765;-63
2022/05/09 07:36:10;;;;;;;10.00;5.70;;;;;;;13.06;100.00;101520.47;5072905;28;20836;-64
2022/05/09 07:38:35;;;;;;;8.02;5.40;;;;;;;13.18;100.00;101523.47;5071521;28;20067;-63
2022/05/09 07:41:01;;;;;;;12.10;5.82;;;;;;;13.08;100.00;101493.09;5072059;28;20140;-63
2022/05/09 07:43:29;;;;;;;9.23;5.10;;;;;;;13.31;100.00;101519.38;5072595;28;20892;-63
2022/05/09 07:45:55;;;;;;;14.90;6.80;;;;;;;13.45;100.00;101517.94;5073892;28;20112;-63
2022/05/09 07:48:22;;;;;;;11.93;5.72;;;;;;;13.59;100.00;101510.22;5075325;28;20799;-63
2022/05/09 07:50:49;;;;;;;13.75;7.05;;;;;;;13.80;100.00;101519.84;5076118;28;20066;-63
2022/05/09 07:53:18;;;;;;;10.73;5.80;;;;;;;13.89;100.00;101522.06;5075756;28;20016;-63
2022/05/09 07:55:44;;;;;;;8.50;5.63;;;;;;;13.97;100.00;101521.72;5075834;28;20024;-63
2022/05/09 07:58:09;;;;;;;10.32;5.53;;;;;;;14.03;100.00;101509.06;5070463;28;20032;-63
2022/05/09 08:00:36;;;;;;;8.15;5.65;;;;;;;14.12;100.00;101508.66;5072451;28;20028;-63
2022/05/09 08:03:02;;;;;;;25.40;6.25;;;;;;;14.23;100.00;101508.13;5071887;28;20069;-63
2022/05/09 08:05:28;;;;;;;10.85;5.45;;;;;;;14.32;100.00;101515.63;5072004;28;20125;-63
2022/05/09 08:07:53;;;;;;;8.38;4.85;;;;;;;14.33;100.00;101483.84;5051092;28;20787;-63
2022/05/09 08:10:19;;;;;;;11.05;5.95;;;;;;;14.54;100.00;101512.84;5068934;28;20766;-63
2022/05/09 08:12:45;;;;;;;12.25;6.38;;;;;;;14.64;100.00;101509.66;5049778;28;20032;-63
2022/05/09 08:15:12;;;;;;;8.38;4.03;;;;;;;14.74;100.00;101505.63;5066776;28;20032;-63
2022/05/09 08:17:38;;;;;;;10.52;5.07;;;;;;;14.79;100.00;101498.34;5063563;28;20028;-63
2022/05/09 08:20:03;;;;;;;9.82;5.10;;;;;;;14.67;100.00;101453.09;5061871;28;20031;-63
2022/05/09 08:22:31;;;;;;;18.58;5.60;;;;;;;14.95;100.00;101487.81;5061698;28;20814;-63
2022/05/09 08:25:00;;;;;;;14.88;5.25;;;;;;;15.20;100.00;101504.19;5059312;28;20032;-63
2022/05/09 08:27:25;;;;;;;9.00;5.45;;;;;;;15.27;100.00;101500.28;5057900;28;20020;-63
2022/05/09 08:29:54;;;;;;;12.45;5.15;;;;;;;15.47;100.00;101493.94;5034201;28;20287;-63
2022/05/09 08:32:20;;;;;;;12.35;4.85;;;;;;;15.55;100.00;101493.53;5051527;28;20126;-63
2022/05/09 08:34:45;;;;;;;11.43;5.07;;;;;;;15.66;100.00;101493.84;5050826;28;20085;-63
2022/05/09 08:37:11;;;;;;;11.43;4.65;;;;;;;15.76;100.00;101498.56;5050218;28;20960;-63
2022/05/09 08:39:36;;;;;;;8.65;4.57;;;;;;;15.86;100.00;101506.88;5047742;28;20035;-63
2022/05/09 08:42:05;;;;;;;11.25;4.47;;;;;;;15.94;100.00;101515.28;5046554;28;20900;-63
2022/05/09 08:45:05;;;;;;;7.68;3.58;;;;;;;16.04;100.00;101513.81;5046677;28;20032;-63
2022/05/09 08:47:44;;;;;;;6.45;3.75;;;;;;;16.12;100.00;101506.28;5047055;28;20031;-63
2022/05/09 08:50:09;;;;;;;10.07;4.30;;;;;;;16.27;100.00;101513.41;5029365;28;20032;-63
2022/05/09 08:52:45;;;;;;;11.13;4.35;;;;;;;16.31;100.00;101500.81;5046726;28;20155;-63
2022/05/09 08:55:11;;;;;;;7.70;3.65;;;;;;;16.48;100.00;101502.53;5046791;28;20016;-63
2022/05/09 08:57:40;;;;;;;16.95;3.63;;;;;;;16.64;100.00;101503.38;5046231;28;20038;-63
2022/05/09 09:00:10;;;;;;;14.98;4.35;;;;;;;16.78;100.00;101506.97;5046604;28;20032;-63
2022/05/09 09:02:43;;;;;;;8.57;3.78;;;;;;;16.72;100.00;101479.91;5045943;28;20024;-63
2022/05/09 09:05:11;;;;;;;6.82;3.65;;;;;;;16.97;100.00;101506.72;5046364;28;20050;-63
2022/05/09 09:07:59;;;;;;;8.70;3.72;;;;;;;17.08;100.00;101504.28;5046342;28;20964;-63
2022/05/09 09:10:43;;;;;;;11.90;4.28;;;;;;;17.16;100.00;101496.75;5029818;28;20945;-63
2022/05/09 09:13:38;;;;;;;6.93;4.10;;;;;;;17.36;100.00;101493.72;5025652;28;20024;-63
2022/05/09 09:16:33;;;;;;;9.10;3.80;;;;;;;17.52;100.00;101490.97;5019680;28;20040;-63
2022/05/09 09:19:23;;;;;;;5.88;3.42;;;;;;;17.62;100.00;101483.31;5029421;28;20043;-63
2022/05/09 09:22:07;;;;;;;7.28;3.28;;;;;;;17.74;99.60;101494.03;5040778;28;20036;-63
2022/05/09 09:25:00;;;;;;;9.23;3.90;;;;;;;17.82;99.03;101482.94;5043936;28;20127;-64
2022/05/09 09:27:48;;;;;;;11.32;4.15;;;;;;;18.05;100.00;101487.66;5039878;28;20900;-63
2022/05/09 09:30:18;;;;;;;4.53;2.85;;;;;;;18.15;97.57;101474.63;5042372;28;20139;-63
2022/05/09 09:32:51;;;;;;;9.43;4.72;;;;;;;18.30;96.38;101487.78;5046659;28;20031;-64
2022/05/09 09:35:26;;;;;;;6.63;3.55;;;;;;;18.16;94.75;101458.56;5035423;28;20177;-63
2022/05/09 09:37:57;;;;;;;12.85;3.13;;;;;;;18.44;97.45;101489.56;5038322;28;20064;-63
2022/05/09 09:40:23;;;;;;;7.97;3.80;;;;;;;18.56;97.09;101482.59;5044483;28;20085;-63
2022/05/09 09:42:53;;;;;;;9.07;3.78;;;;;;;18.64;94.40;101485.59;5047702;28;20038;-63
2022/05/09 09:45:40;;;;;;;11.05;4.65;;;;;;;18.68;90.05;101481.78;5045399;28;20035;-63
2022/05/09 09:48:08;;;;;;;6.32;4.22;;;;;;;18.78;91.32;101482.88;5038990;28;20035;-63
2022/05/09 09:50:34;;;;;;;5.90;3.63;;;;;;;18.89;93.65;101483.84;5040933;28;20061;-63
2022/05/09 09:53:00;;;;;;;13.32;4.05;;;;;;;19.02;93.43;101481.22;5019485;28;20878;-63
2022/05/09 09:55:32;;;;;;;7.18;4.35;;;;;;;19.20;95.21;101474.63;5010515;28;20091;-63
2022/05/09 09:58:00;;;;;;;8.63;4.00;;;;;;;19.35;93.05;101456.72;5008043;28;20108;-63
2022/05/09 10:00:31;;;;;;;8.32;4.15;;;;;;;19.38;87.46;101467.19;5008442;28;20035;-63
2022/05/09 10:03:16;;;;;;;10.30;4.35;;;;;;;19.44;89.27;101465.91;5026475;28;20051;-63
2022/05/09 10:05:44;;;;;;;17.63;4.63;;;;;;;19.57;93.93;101450.78;5027042;28;20028;-63
2022/05/09 10:08:38;;;;;;;8.43;4.78;;;;;;;19.92;88.70;101462.44;5026784;28;20024;-63
2022/05/09 10:11:13;;;;;;;7.33;4.23;;;;;;;20.09;85.83;101464.75;5009401;28;20039;-63
2022/05/09 10:13:41;;;;;;;8.60;4.38;;;;;;;19.95;81.38;101437.34;5010492;28;20078;-63
2022/05/09 10:16:13;;;;;;;6.38;4.03;;;;;;;20.03;82.26;101453.66;5026533;28;20035;-63
2022/05/09 10:18:42;;;;;;;7.10;4.43;;;;;;;20.11;82.93;101452.13;5010016;28;20036;-63
2022/05/09 10:24:48;;;;;;;8.82;4.90;;;;;;;20.31;83.49;101437.38;4984750;28;21192;-63
2022/05/09 10:27:22;;;;;;;8.15;4.50;;;;;;;20.44;82.19;101450.66;4969428;28;20049;-63
2022/05/09 10:29:50;;;;;;;6.45;3.72;;;;;;;20.57;83.11;101448.78;5010896;28;20050;-63
2022/05/09 10:32:19;;;;;;;16.02;4.20;;;;;;;20.60;83.77;101432.50;5009094;28;20093;-63
2022/05/09 10:35:00;;;;;;;11.23;4.72;;;;;;;20.63;82.04;101425.13;5009695;28;20926;-63
2022/05/09 10:37:47;;;;;;;8.10;4.15;;;;;;;20.79;83.87;101433.66;5026585;28;20025;-63
2022/05/09 10:40:31;;;;;;;11.85;4.97;;;;;;;21.09;80.28;101430.44;5034656;28;20131;-63
2022/05/09 10:43:06;;;;;;;8.90;4.55;;;;;;;21.38;81.16;101426.41;5027968;28;20131;-63
2022/05/09 10:45:38;;;;;;;7.00;4.10;;;;;;;21.58;79.39;101418.63;5034069;28;20033;-63
2022/05/09 10:48:29;;;;;;;6.68;4.25;;;;;;;21.74;79.19;101419.09;5032629;28;20036;-63
2022/05/09 10:51:04;;;;;;;12.48;5.18;;;;;;;21.83;78.97;101408.47;5041150;28;20078;-63
2022/05/09 10:53:54;;;;;;;7.60;5.20;;;;;;;22.03;74.61;101417.63;5028822;28;20036;-63
2022/05/09 10:56:33;;;;;;;12.65;5.30;;;;;;;21.97;76.53;101417.28;5028679;28;20117;-63
2022/05/09 10:59:09;;;;;;;11.45;5.68;;;;;;;22.05;75.89;101394.25;5030046;28;20043;-64
2022/05/09 11:01:50;;;;;;;13.73;5.30;;;;;;;22.29;74.80;101408.28;5029650;28;20809;-63
2022/05/09 11:04:16;;;;;;;8.68;5.63;;;;;;;22.26;71.73;101388.94;5030329;28;20032;-63
2022/05/09 11:07:14;;;;;;;11.18;5.13;;;;;;;22.33;72.94;101404.38;5026661;28;20020;-63
2022/05/09 11:10:11;;;;;;;8.40;5.32;;;;;;;22.49;75.51;101393.22;5025485;28;20039;-63
2022/05/09 11:13:02;;;;;;;11.15;6.18;;;;;;;22.78;71.94;101396.13;5025243;28;20052;-63
2022/05/09 11:15:30;;;;;;;10.98;5.80;;;;;;;22.75;68.88;101397.25;5003884;28;20123;-63
2022/05/09 11:18:11;;;;;;;15.07;6.88;;;;;;;22.85;69.71;101392.81;5026348;28;20056;-63
2022/05/09 11:21:01;;;;;;;13.07;6.28;;;;;;;23.06;71.42;101386.56;5008872;28;20032;-63
2022/05/09 11:23:35;;;;;;;11.90;5.28;;;;;;;22.93;70.74;101330.50;5027231;28;20031;-63
2022/05/09 11:26:22;;;;;;;;;;;;;;;23.49;69.06;101381.84;5009629;28;20040;-63
2022/05/09 11:29:01;;;;;;;12.25;6.18;;;;;;;23.89;68.56;101382.69;5026593;28;19912;-63
2022/05/09 11:31:27;;;;;;;13.88;7.07;;;;;;;24.00;65.25;101375.47;5027121;28;20067;-63
2022/05/09 11:34:08;;;;;;;10.85;5.50;;;;;;;24.22;72.99;101373.44;5029800;28;20035;-63